sensor_id;sensor_type;location;lat;lon;timestamp;P1;durP1;ratioP1;P2;durP2;ratioP2
25057;SDS011;13057;50.978;11.034;2023-02-11T00:00:04;27.55;;;15.18;;
25057;SDS011;13057;50.978;11.034;2023-02-11T00:02:31;25.88;;;13.73;;
25057;SDS011;13057;50.978;11.034;2023-02-11T00:04:58;25.25;;;14.35;;
25057;SDS011;13057;50.978;11.034;2023-02-11T00:07:27;24.20;;;14.45;;
25057;SDS011;13057;50.978;11.034;2023-02-11T00:09:53;24.90;;;15.23;;
25057;SDS011;13057;50.978;11.034;2023-02-11T00:12:19;24.17;;;13.27;;
25057;SDS011;13057;50.978;11.034;2023-02-11T00:14:45;22.38;;;13.93;;
25057;SDS011;13057;50.978;11.034;2023-02-11T00:17:11;23.45;;;13.20;;
25057;SDS011;13057;50.978;11.034;2023-02-11T00:19:37;27.98;;;14.15;;
25057;SDS011;13057;50.978;11.034;2023-02-11T00:22:04;24.30;;;14.80;;
25057;SDS011;13057;50.978;11.034;2023-02-11T00:24:30;25.70;;;14.27;;
25057;SDS011;13057;50.978;11.034;2023-02-11T00:26:56;21.88;;;13.55;;
25057;SDS011;13057;50.978;11.034;2023-02-11T00:29:22;27.15;;;14.35;;
25057;SDS011;13057;50.978;11.034;2023-02-11T00:31:48;24.20;;;14.05;;
25057;SDS011;13057;50.978;11.034;2023-02-11T00:34:14;22.08;;;13.93;;
25057;SDS011;13057;50.978;11.034;2023-02-11T00:36:40;24.05;;;14.48;;
25057;SDS011;13057;50.978;11.034;2023-02-11T00:39:06;24.90;;;14.20;;
25057;SDS011;13057;50.978;11.034;2023-02-11T00:41:33;26.50;;;15.10;;
25057;SDS011;13057;50.978;11.034;2023-02-11T00:43:59;26.08;;;15.07;;
25057;SDS011;13057;50.978;11.034;2023-02-11T00:46:26;23.13;;;14.43;;
25057;SDS011;13057;50.978;11.034;2023-02-11T00:48:52;29.98;;;16.65;;
25057;SDS011;13057;50.978;11.034;2023-02-11T00:51:22;25.40;;;14.80;;
25057;SDS011;13057;50.978;11.034;2023-02-11T00:53:49;25.88;;;14.82;;
25057;SDS011;13057;50.978;11.034;2023-02-11T00:56:14;27.30;;;15.65;;
25057;SDS011;13057;50.978;11.034;2023-02-11T00:58:40;24.33;;;14.93;;
25057;SDS011;13057;50.978;11.034;2023-02-11T01:01:06;26.63;;;14.48;;
25057;SDS011;13057;50.978;11.034;2023-02-11T01:03:32;28.08;;;15.15;;
25057;SDS011;13057;50.978;11.034;2023-02-11T01:05:58;28.13;;;15.57;;
25057;SDS011;13057;50.978;11.034;2023-02-11T01:08:24;25.00;;;14.65;;
25057;SDS011;13057;50.978;11.034;2023-02-11T01:10:54;26.48;;;15.18;;
25057;SDS011;13057;50.978;11.034;2023-02-11T01:13:21;26.20;;;14.88;;
25057;SDS011;13057;50.978;11.034;2023-02-11T01:15:47;28.38;;;16.13;;
25057;SDS011;13057;50.978;11.034;2023-02-11T01:18:14;24.35;;;15.32;;
25057;SDS011;13057;50.978;11.034;2023-02-11T01:20:40;27.90;;;15.95;;
25057;SDS011;13057;50.978;11.034;2023-02-11T01:23:06;25.13;;;14.68;;
25057;SDS011;13057;50.978;11.034;2023-02-11T01:25:32;23.83;;;14.43;;
25057;SDS011;13057;50.978;11.034;2023-02-11T01:27:58;26.10;;;15.90;;
25057;SDS011;13057;50.978;11.034;2023-02-11T01:30:24;30.35;;;16.27;;
25057;SDS011;13057;50.978;11.034;2023-02-11T01:32:50;26.58;;;15.20;;
25057;SDS011;13057;50.978;11.034;2023-02-11T01:35:16;27.55;;;14.82;;
25057;SDS011;13057;50.978;11.034;2023-02-11T01:37:42;25.30;;;13.98;;
25057;SDS011;13057;50.978;11.034;2023-02-11T01:40:11;28.02;;;14.98;;
25057;SDS011;13057;50.978;11.034;2023-02-11T01:42:39;23.90;;;14.27;;
25057;SDS011;13057;50.978;11.034;2023-02-11T01:47:54;25.52;;;13.82;;
25057;SDS011;13057;50.978;11.034;2023-02-11T01:50:24;25.30;;;14.85;;
25057;SDS011;13057;50.978;11.034;2023-02-11T01:52:50;24.58;;;14.88;;
25057;SDS011;13057;50.978;11.034;2023-02-11T01:55:16;24.80;;;14.32;;
25057;SDS011;13057;50.978;11.034;2023-02-11T01:57:54;22.15;;;13.70;;
25057;SDS011;13057;50.978;11.034;2023-02-11T02:00:26;27.77;;;15.52;;
25057;SDS011;13057;50.978;11.034;2023-02-11T02:03:04;25.45;;;14.35;;
25057;SDS011;13057;50.978;11.034;2023-02-11T02:05:39;28.88;;;14.45;;
25057;SDS011;13057;50.978;11.034;2023-02-11T02:08:24;26.67;;;14.15;;
25057;SDS011;13057;50.978;11.034;2023-02-11T02:11:05;24.90;;;14.30;;
25057;SDS011;13057;50.978;11.034;2023-02-11T02:13:32;24.63;;;13.85;;
25057;SDS011;13057;50.978;11.034;2023-02-11T02:15:59;24.60;;;14.07;;
25057;SDS011;13057;50.978;11.034;2023-02-11T02:27:18;26.15;;;14.95;;
25057;SDS011;13057;50.978;11.034;2023-02-11T02:30:07;27.42;;;15.23;;
25057;SDS011;13057;50.978;11.034;2023-02-11T02:33:05;27.52;;;15.13;;
25057;SDS011;13057;50.978;11.034;2023-02-11T02:35:53;26.77;;;15.98;;
25057;SDS011;13057;50.978;11.034;2023-02-11T02:38:31;27.50;;;15.70;;
25057;SDS011;13057;50.978;11.034;2023-02-11T02:41:13;28.13;;;15.80;;
25057;SDS011;13057;50.978;11.034;2023-02-11T02:43:43;27.60;;;15.48;;
25057;SDS011;13057;50.978;11.034;2023-02-11T02:46:14;28.58;;;14.18;;
25057;SDS011;13057;50.978;11.034;2023-02-11T02:48:43;25.58;;;15.57;;
25057;SDS011;13057;50.978;11.034;2023-02-11T02:51:16;29.73;;;15.32;;
25057;SDS011;13057;50.978;11.034;2023-02-11T02:56:53;25.05;;;14.93;;
25057;SDS011;13057;50.978;11.034;2023-02-11T03:02:39;26.23;;;15.32;;
25057;SDS011;13057;50.978;11.034;2023-02-11T03:07:57;26.55;;;15.15;;
25057;SDS011;13057;50.978;11.034;2023-02-11T03:10:35;29.50;;;15.60;;
25057;SDS011;13057;50.978;11.034;2023-02-11T03:13:04;29.20;;;15.80;;
25057;SDS011;13057;50.978;11.034;2023-02-11T03:15:32;29.33;;;15.50;;
25057;SDS011;13057;50.978;11.034;2023-02-11T03:18:03;31.63;;;15.90;;
25057;SDS011;13057;50.978;11.034;2023-02-11T03:20:31;27.63;;;16.30;;
25057;SDS011;13057;50.978;11.034;2023-02-11T03:23:02;30.05;;;16.02;;
25057;SDS011;13057;50.978;11.034;2023-02-11T03:25:36;26.77;;;16.33;;
25057;SDS011;13057;50.978;11.034;2023-02-11T03:28:13;32.22;;;16.33;;
25057;SDS011;13057;50.978;11.034;2023-02-11T03:30:54;28.85;;;15.68;;
25057;SDS011;13057;50.978;11.034;2023-02-11T03:33:40;30.20;;;16.88;;
25057;SDS011;13057;50.978;11.034;2023-02-11T03:36:26;31.23;;;16.02;;
25057;SDS011;13057;50.978;11.034;2023-02-11T03:38:59;29.05;;;15.93;;
25057;SDS011;13057;50.978;11.034;2023-02-11T03:41:27;31.55;;;16.33;;
25057;SDS011;13057;50.978;11.034;2023-02-11T03:43:56;26.20;;;15.68;;
25057;SDS011;13057;50.978;11.034;2023-02-11T03:46:26;31.38;;;17.83;;
25057;SDS011;13057;50.978;11.034;2023-02-11T03:48:58;29.25;;;15.55;;
25057;SDS011;13057;50.978;11.034;2023-02-11T03:51:29;28.60;;;15.50;;
25057;SDS011;13057;50.978;11.034;2023-02-11T03:53:57;30.27;;;16.38;;
25057;SDS011;13057;50.978;11.034;2023-02-11T03:56:27;30.25;;;16.35;;
25057;SDS011;13057;50.978;11.034;2023-02-11T03:58:56;30.50;;;16.02;;
25057;SDS011;13057;50.978;11.034;2023-02-11T04:01:22;25.52;;;15.20;;
25057;SDS011;13057;50.978;11.034;2023-02-11T04:03:48;31.30;;;16.55;;
25057;SDS011;13057;50.978;11.034;2023-02-11T04:06:14;32.15;;;18.17;;
25057;SDS011;13057;50.978;11.034;2023-02-11T04:08:39;31.25;;;16.88;;
25057;SDS011;13057;50.978;11.034;2023-02-11T04:11:06;28.52;;;16.25;;
25057;SDS011;13057;50.978;11.034;2023-02-11T04:13:31;27.30;;;16.67;;
25057;SDS011;13057;50.978;11.034;2023-02-11T04:15:57;28.83;;;16.67;;
25057;SDS011;13057;50.978;11.034;2023-02-11T04:18:23;29.85;;;16.98;;
25057;SDS011;13057;50.978;11.034;2023-02-11T04:20:50;30.65;;;16.50;;
25057;SDS011;13057;50.978;11.034;2023-02-11T04:23:16;26.13;;;15.23;;
25057;SDS011;13057;50.978;11.034;2023-02-11T04:25:42;27.35;;;16.33;;
25057;SDS011;13057;50.978;11.034;2023-02-11T04:28:08;27.65;;;15.65;;
25057;SDS011;13057;50.978;11.034;2023-02-11T04:30:34;28.90;;;16.70;;
25057;SDS011;13057;50.978;11.034;2023-02-11T04:32:59;32.80;;;17.27;;
25057;SDS011;13057;50.978;11.034;2023-02-11T04:35:25;32.40;;;15.75;;
25057;SDS011;13057;50.978;11.034;2023-02-11T04:37:51;36.53;;;16.02;;
25057;SDS011;13057;50.978;11.034;2023-02-11T04:40:17;30.80;;;16.33;;
25057;SDS011;13057;50.978;11.034;2023-02-11T04:42:43;29.40;;;15.57;;
25057;SDS011;13057;50.978;11.034;2023-02-11T04:45:09;28.52;;;16.27;;
25057;SDS011;13057;50.978;11.034;2023-02-11T04:47:34;30.65;;;16.85;;
25057;SDS011;13057;50.978;11.034;2023-02-11T04:50:02;32.88;;;16.27;;
25057;SDS011;13057;50.978;11.034;2023-02-11T04:52:28;31.58;;;16.80;;
25057;SDS011;13057;50.978;11.034;2023-02-11T04:54:54;27.05;;;16.08;;
25057;SDS011;13057;50.978;11.034;2023-02-11T04:57:20;32.75;;;17.13;;
25057;SDS011;13057;50.978;11.034;2023-02-11T04:59:46;27.88;;;17.00;;
25057;SDS011;13057;50.978;11.034;2023-02-11T05:02:12;30.95;;;16.88;;
25057;SDS011;13057;50.978;11.034;2023-02-11T05:04:38;32.25;;;17.40;;
25057;SDS011;13057;50.978;11.034;2023-02-11T05:07:04;27.55;;;15.90;;
25057;SDS011;13057;50.978;11.034;2023-02-11T05:09:30;28.48;;;16.73;;
25057;SDS011;13057;50.978;11.034;2023-02-11T05:11:56;32.05;;;18.60;;
25057;SDS011;13057;50.978;11.034;2023-02-11T05:14:22;31.38;;;17.55;;
25057;SDS011;13057;50.978;11.034;2023-02-11T05:16:48;35.30;;;17.25;;
25057;SDS011;13057;50.978;11.034;2023-02-11T05:19:14;62.33;;;20.15;;
25057;SDS011;13057;50.978;11.034;2023-02-11T05:21:40;40.53;;;16.98;;
25057;SDS011;13057;50.978;11.034;2023-02-11T05:24:06;30.55;;;17.65;;
25057;SDS011;13057;50.978;11.034;2023-02-11T05:26:32;30.08;;;17.13;;
25057;SDS011;13057;50.978;11.034;2023-02-11T05:28:58;30.52;;;17.27;;
25057;SDS011;13057;50.978;11.034;2023-02-11T05:31:24;30.83;;;16.73;;
25057;SDS011;13057;50.978;11.034;2023-02-11T05:33:50;29.42;;;17.25;;
25057;SDS011;13057;50.978;11.034;2023-02-11T05:36:16;29.13;;;17.02;;
25057;SDS011;13057;50.978;11.034;2023-02-11T05:38:42;28.73;;;16.65;;
25057;SDS011;13057;50.978;11.034;2023-02-11T05:41:08;30.17;;;17.17;;
25057;SDS011;13057;50.978;11.034;2023-02-11T05:43:35;28.80;;;16.02;;
25057;SDS011;13057;50.978;11.034;2023-02-11T05:46:02;29.63;;;16.65;;
25057;SDS011;13057;50.978;11.034;2023-02-11T05:48:29;28.42;;;16.23;;
25057;SDS011;13057;50.978;11.034;2023-02-11T05:50:55;28.10;;;16.30;;
25057;SDS011;13057;50.978;11.034;2023-02-11T05:53:21;30.98;;;16.42;;
25057;SDS011;13057;50.978;11.034;2023-02-11T05:55:46;34.08;;;17.02;;
25057;SDS011;13057;50.978;11.034;2023-02-11T05:58:13;32.30;;;17.30;;
25057;SDS011;13057;50.978;11.034;2023-02-11T06:00:38;31.10;;;17.90;;
25057;SDS011;13057;50.978;11.034;2023-02-11T06:03:04;31.52;;;17.98;;
25057;SDS011;13057;50.978;11.034;2023-02-11T06:05:31;34.03;;;19.67;;
25057;SDS011;13057;50.978;11.034;2023-02-11T06:07:57;30.88;;;18.10;;
25057;SDS011;13057;50.978;11.034;2023-02-11T06:10:23;29.40;;;16.30;;
25057;SDS011;13057;50.978;11.034;2023-02-11T06:12:49;30.60;;;15.88;;
25057;SDS011;13057;50.978;11.034;2023-02-11T06:15:15;29.80;;;16.60;;
25057;SDS011;13057;50.978;11.034;2023-02-11T06:17:41;28.67;;;16.30;;
25057;SDS011;13057;50.978;11.034;2023-02-11T06:20:07;26.20;;;16.00;;
25057;SDS011;13057;50.978;11.034;2023-02-11T06:22:34;29.63;;;16.20;;
25057;SDS011;13057;50.978;11.034;2023-02-11T06:25:01;29.48;;;16.33;;
25057;SDS011;13057;50.978;11.034;2023-02-11T06:27:27;26.92;;;16.25;;
25057;SDS011;13057;50.978;11.034;2023-02-11T06:29:53;29.25;;;16.88;;
25057;SDS011;13057;50.978;11.034;2023-02-11T06:32:19;30.00;;;15.98;;
25057;SDS011;13057;50.978;11.034;2023-02-11T06:34:45;30.80;;;17.52;;
25057;SDS011;13057;50.978;11.034;2023-02-11T06:37:11;29.67;;;16.48;;
25057;SDS011;13057;50.978;11.034;2023-02-11T06:39:37;31.20;;;16.42;;
25057;SDS011;13057;50.978;11.034;2023-02-11T06:42:03;30.90;;;16.35;;
25057;SDS011;13057;50.978;11.034;2023-02-11T06:44:29;28.70;;;17.02;;
25057;SDS011;13057;50.978;11.034;2023-02-11T06:46:56;29.55;;;16.45;;
25057;SDS011;13057;50.978;11.034;2023-02-11T06:49:24;29.75;;;16.83;;
25057;SDS011;13057;50.978;11.034;2023-02-11T06:51:51;31.15;;;16.70;;
25057;SDS011;13057;50.978;11.034;2023-02-11T06:54:16;31.15;;;17.45;;
25057;SDS011;13057;50.978;11.034;2023-02-11T06:56:42;33.28;;;16.10;;
25057;SDS011;13057;50.978;11.034;2023-02-11T06:59:11;28.65;;;16.50;;
25057;SDS011;13057;50.978;11.034;2023-02-11T07:01:40;29.13;;;17.00;;
25057;SDS011;13057;50.978;11.034;2023-02-11T07:04:06;29.38;;;16.80;;
25057;SDS011;13057;50.978;11.034;2023-02-11T07:06:32;30.55;;;16.73;;
25057;SDS011;13057;50.978;11.034;2023-02-11T07:08:58;27.27;;;15.98;;
25057;SDS011;13057;50.978;11.034;2023-02-11T07:11:26;30.60;;;16.92;;
25057;SDS011;13057;50.978;11.034;2023-02-11T07:13:54;36.08;;;20.35;;
25057;SDS011;13057;50.978;11.034;2023-02-11T07:16:24;30.05;;;17.58;;
25057;SDS011;13057;50.978;11.034;2023-02-11T07:18:50;27.35;;;16.73;;
25057;SDS011;13057;50.978;11.034;2023-02-11T07:21:17;28.45;;;17.70;;
25057;SDS011;13057;50.978;11.034;2023-02-11T07:23:45;32.88;;;17.65;;
25057;SDS011;13057;50.978;11.034;2023-02-11T07:26:13;29.05;;;16.95;;
25057;SDS011;13057;50.978;11.034;2023-02-11T07:28:41;30.67;;;17.10;;
25057;SDS011;13057;50.978;11.034;2023-02-11T07:31:09;29.80;;;17.95;;
25057;SDS011;13057;50.978;11.034;2023-02-11T07:33:36;29.13;;;17.65;;
25057;SDS011;13057;50.978;11.034;2023-02-11T07:36:03;31.48;;;18.00;;
25057;SDS011;13057;50.978;11.034;2023-02-11T07:38:31;28.08;;;16.40;;
25057;SDS011;13057;50.978;11.034;2023-02-11T07:40:59;31.38;;;18.30;;
25057;SDS011;13057;50.978;11.034;2023-02-11T07:43:25;31.90;;;17.50;;
25057;SDS011;13057;50.978;11.034;2023-02-11T07:45:54;28.15;;;16.98;;
25057;SDS011;13057;50.978;11.034;2023-02-11T07:48:20;30.20;;;17.75;;
25057;SDS011;13057;50.978;11.034;2023-02-11T07:50:46;34.67;;;17.85;;
25057;SDS011;13057;50.978;11.034;2023-02-11T07:53:12;28.77;;;16.33;;
25057;SDS011;13057;50.978;11.034;2023-02-11T07:55:38;28.30;;;17.05;;
25057;SDS011;13057;50.978;11.034;2023-02-11T07:58:04;25.83;;;16.92;;
25057;SDS011;13057;50.978;11.034;2023-02-11T08:00:30;29.35;;;17.75;;
25057;SDS011;13057;50.978;11.034;2023-02-11T08:02:56;31.95;;;18.85;;
25057;SDS011;13057;50.978;11.034;2023-02-11T08:05:22;32.08;;;18.70;;
25057;SDS011;13057;50.978;11.034;2023-02-11T08:07:50;33.70;;;18.58;;
25057;SDS011;13057;50.978;11.034;2023-02-11T08:10:16;34.05;;;17.48;;
25057;SDS011;13057;50.978;11.034;2023-02-11T08:12:42;34.33;;;18.70;;
25057;SDS011;13057;50.978;11.034;2023-02-11T08:15:08;34.63;;;20.55;;
25057;SDS011;13057;50.978;11.034;2023-02-11T08:17:35;37.33;;;20.40;;
25057;SDS011;13057;50.978;11.034;2023-02-11T08:20:01;36.22;;;19.88;;
25057;SDS011;13057;50.978;11.034;2023-02-11T08:22:30;31.95;;;18.45;;
25057;SDS011;13057;50.978;11.034;2023-02-11T08:24:57;34.15;;;19.63;;
25057;SDS011;13057;50.978;11.034;2023-02-11T08:27:23;33.97;;;19.58;;
25057;SDS011;13057;50.978;11.034;2023-02-11T08:29:51;36.28;;;18.92;;
25057;SDS011;13057;50.978;11.034;2023-02-11T08:32:17;30.40;;;17.45;;
25057;SDS011;13057;50.978;11.034;2023-02-11T08:34:43;33.47;;;18.30;;
25057;SDS011;13057;50.978;11.034;2023-02-11T08:37:09;32.95;;;19.27;;
25057;SDS011;13057;50.978;11.034;2023-02-11T08:39:36;34.00;;;19.95;;
25057;SDS011;13057;50.978;11.034;2023-02-11T08:42:02;34.65;;;17.80;;
25057;SDS011;13057;50.978;11.034;2023-02-11T08:44:28;32.28;;;19.00;;
25057;SDS011;13057;50.978;11.034;2023-02-11T08:46:54;28.25;;;16.75;;
25057;SDS011;13057;50.978;11.034;2023-02-11T08:49:20;30.35;;;18.40;;
25057;SDS011;13057;50.978;11.034;2023-02-11T08:51:46;33.67;;;17.17;;
25057;SDS011;13057;50.978;11.034;2023-02-11T08:54:12;28.73;;;18.15;;
25057;SDS011;13057;50.978;11.034;2023-02-11T08:56:38;37.75;;;19.52;;
25057;SDS011;13057;50.978;11.034;2023-02-11T08:59:05;28.73;;;17.48;;
25057;SDS011;13057;50.978;11.034;2023-02-11T09:01:33;35.92;;;20.13;;
25057;SDS011;13057;50.978;11.034;2023-02-11T09:03:59;35.75;;;20.20;;
25057;SDS011;13057;50.978;11.034;2023-02-11T09:06:25;39.70;;;19.65;;
25057;SDS011;13057;50.978;11.034;2023-02-11T09:08:53;36.88;;;20.20;;
25057;SDS011;13057;50.978;11.034;2023-02-11T09:11:21;34.35;;;20.25;;
25057;SDS011;13057;50.978;11.034;2023-02-11T09:13:51;32.72;;;18.75;;
25057;SDS011;13057;50.978;11.034;2023-02-11T09:16:19;27.27;;;14.90;;
25057;SDS011;13057;50.978;11.034;2023-02-11T09:18:46;32.38;;;17.60;;
25057;SDS011;13057;50.978;11.034;2023-02-11T09:21:13;28.15;;;16.10;;
25057;SDS011;13057;50.978;11.034;2023-02-11T09:23:40;35.92;;;18.35;;
25057;SDS011;13057;50.978;11.034;2023-02-11T09:26:11;31.40;;;16.42;;
25057;SDS011;13057;50.978;11.034;2023-02-11T09:28:39;32.95;;;18.17;;
25057;SDS011;13057;50.978;11.034;2023-02-11T09:31:06;35.47;;;18.55;;
25057;SDS011;13057;50.978;11.034;2023-02-11T09:33:33;34.35;;;18.48;;
25057;SDS011;13057;50.978;11.034;2023-02-11T09:36:00;32.30;;;17.98;;
25057;SDS011;13057;50.978;11.034;2023-02-11T09:38:27;39.30;;;19.30;;
25057;SDS011;13057;50.978;11.034;2023-02-11T09:40:52;36.58;;;19.60;;
25057;SDS011;13057;50.978;11.034;2023-02-11T09:43:19;32.95;;;18.80;;
25057;SDS011;13057;50.978;11.034;2023-02-11T09:45:55;27.65;;;16.08;;
25057;SDS011;13057;50.978;11.034;2023-02-11T09:48:22;32.17;;;18.85;;
25057;SDS011;13057;50.978;11.034;2023-02-11T09:50:50;25.63;;;15.55;;
25057;SDS011;13057;50.978;11.034;2023-02-11T09:53:23;30.13;;;17.52;;
25057;SDS011;13057;50.978;11.034;2023-02-11T09:55:52;33.67;;;18.33;;
25057;SDS011;13057;50.978;11.034;2023-02-11T09:58:24;34.95;;;20.20;;
25057;SDS011;13057;50.978;11.034;2023-02-11T10:01:00;28.38;;;17.48;;
25057;SDS011;13057;50.978;11.034;2023-02-11T10:03:57;41.53;;;21.13;;
25057;SDS011;13057;50.978;11.034;2023-02-11T10:06:40;35.53;;;19.17;;
25057;SDS011;13057;50.978;11.034;2023-02-11T10:09:17;33.63;;;19.13;;
25057;SDS011;13057;50.978;11.034;2023-02-11T10:12:10;38.80;;;19.85;;
25057;SDS011;13057;50.978;11.034;2023-02-11T10:15:03;37.72;;;19.20;;
25057;SDS011;13057;50.978;11.034;2023-02-11T10:17:51;26.10;;;15.00;;
25057;SDS011;13057;50.978;11.034;2023-02-11T10:20:30;26.95;;;16.33;;
25057;SDS011;13057;50.978;11.034;2023-02-11T10:23:01;24.92;;;14.25;;
25057;SDS011;13057;50.978;11.034;2023-02-11T10:25:37;24.48;;;14.43;;
25057;SDS011;13057;50.978;11.034;2023-02-11T10:28:16;22.38;;;13.88;;
25057;SDS011;13057;50.978;11.034;2023-02-11T10:30:56;20.20;;;12.18;;
25057;SDS011;13057;50.978;11.034;2023-02-11T10:33:35;20.75;;;13.18;;
25057;SDS011;13057;50.978;11.034;2023-02-11T10:36:07;22.17;;;13.85;;
25057;SDS011;13057;50.978;11.034;2023-02-11T10:38:36;19.27;;;12.60;;
25057;SDS011;13057;50.978;11.034;2023-02-11T10:41:02;21.17;;;12.75;;
25057;SDS011;13057;50.978;11.034;2023-02-11T10:43:29;13.38;;;7.88;;
25057;SDS011;13057;50.978;11.034;2023-02-11T10:45:56;20.42;;;13.05;;
25057;SDS011;13057;50.978;11.034;2023-02-11T10:48:36;25.40;;;12.45;;
25057;SDS011;13057;50.978;11.034;2023-02-11T10:51:24;22.55;;;12.98;;
25057;SDS011;13057;50.978;11.034;2023-02-11T10:56:46;22.83;;;12.25;;
25057;SDS011;13057;50.978;11.034;2023-02-11T10:59:18;23.27;;;13.00;;
25057;SDS011;13057;50.978;11.034;2023-02-11T11:01:56;20.10;;;13.13;;
25057;SDS011;13057;50.978;11.034;2023-02-11T11:04:32;21.95;;;12.85;;
25057;SDS011;13057;50.978;11.034;2023-02-11T11:07:11;20.73;;;12.55;;
25057;SDS011;13057;50.978;11.034;2023-02-11T11:09:45;18.33;;;10.02;;
25057;SDS011;13057;50.978;11.034;2023-02-11T11:15:18;20.85;;;12.02;;
25057;SDS011;13057;50.978;11.034;2023-02-11T11:17:48;22.38;;;12.25;;
25057;SDS011;13057;50.978;11.034;2023-02-11T11:20:18;18.98;;;12.07;;
25057;SDS011;13057;50.978;11.034;2023-02-11T11:22:52;18.40;;;11.25;;
25057;SDS011;13057;50.978;11.034;2023-02-11T11:25:31;19.60;;;12.05;;
25057;SDS011;13057;50.978;11.034;2023-02-11T11:27:58;19.77;;;12.15;;
25057;SDS011;13057;50.978;11.034;2023-02-11T11:30:30;15.95;;;10.32;;
25057;SDS011;13057;50.978;11.034;2023-02-11T11:33:04;20.27;;;11.38;;
25057;SDS011;13057;50.978;11.034;2023-02-11T11:35:55;24.63;;;13.30;;
25057;SDS011;13057;50.978;11.034;2023-02-11T11:38:26;19.63;;;11.77;;
25057;SDS011;13057;50.978;11.034;2023-02-11T11:43:53;16.35;;;8.63;;
25057;SDS011;13057;50.978;11.034;2023-02-11T11:48:57;20.10;;;10.68;;
25057;SDS011;13057;50.978;11.034;2023-02-11T11:51:31;19.25;;;11.05;;
25057;SDS011;13057;50.978;11.034;2023-02-11T11:54:00;18.80;;;11.73;;
25057;SDS011;13057;50.978;11.034;2023-02-11T11:56:31;18.40;;;11.05;;
25057;SDS011;13057;50.978;11.034;2023-02-11T11:59:01;12.48;;;4.05;;
25057;SDS011;13057;50.978;11.034;2023-02-11T12:01:40;18.80;;;11.05;;
25057;SDS011;13057;50.978;11.034;2023-02-11T12:07:10;18.95;;;11.75;;
25057;SDS011;13057;50.978;11.034;2023-02-11T12:10:03;18.38;;;10.65;;
25057;SDS011;13057;50.978;11.034;2023-02-11T12:12:57;18.40;;;9.00;;
25057;SDS011;13057;50.978;11.034;2023-02-11T12:15:52;14.75;;;9.05;;
25057;SDS011;13057;50.978;11.034;2023-02-11T12:21:13;21.05;;;8.63;;
25057;SDS011;13057;50.978;11.034;2023-02-11T12:24:06;20.20;;;12.38;;
25057;SDS011;13057;50.978;11.034;2023-02-11T12:26:59;19.20;;;11.15;;
25057;SDS011;13057;50.978;11.034;2023-02-11T12:32:38;20.25;;;12.15;;
25057;SDS011;13057;50.978;11.034;2023-02-11T12:35:27;22.00;;;11.75;;
25057;SDS011;13057;50.978;11.034;2023-02-11T12:38:08;20.55;;;11.50;;
25057;SDS011;13057;50.978;11.034;2023-02-11T12:40:56;22.70;;;11.52;;
25057;SDS011;13057;50.978;11.034;2023-02-11T12:43:43;16.38;;;10.25;;
25057;SDS011;13057;50.978;11.034;2023-02-11T12:46:14;19.75;;;11.35;;
25057;SDS011;13057;50.978;11.034;2023-02-11T12:51:47;11.98;;;6.72;;
25057;SDS011;13057;50.978;11.034;2023-02-11T12:54:39;21.65;;;12.38;;
25057;SDS011;13057;50.978;11.034;2023-02-11T12:57:22;19.58;;;11.30;;
25057;SDS011;13057;50.978;11.034;2023-02-11T12:59:54;22.10;;;11.63;;
25057;SDS011;13057;50.978;11.034;2023-02-11T13:02:49;19.40;;;11.52;;
25057;SDS011;13057;50.978;11.034;2023-02-11T13:05:30;17.30;;;10.93;;
25057;SDS011;13057;50.978;11.034;2023-02-11T13:08:10;18.13;;;10.90;;
25057;SDS011;13057;50.978;11.034;2023-02-11T13:10:41;22.10;;;11.32;;
25057;SDS011;13057;50.978;11.034;2023-02-11T13:13:13;21.35;;;11.25;;
25057;SDS011;13057;50.978;11.034;2023-02-11T13:15:50;18.15;;;10.98;;
25057;SDS011;13057;50.978;11.034;2023-02-11T13:18:27;16.77;;;10.45;;
25057;SDS011;13057;50.978;11.034;2023-02-11T13:21:18;20.10;;;10.75;;
25057;SDS011;13057;50.978;11.034;2023-02-11T13:24:01;19.30;;;10.90;;
25057;SDS011;13057;50.978;11.034;2023-02-11T13:26:45;20.83;;;10.80;;
25057;SDS011;13057;50.978;11.034;2023-02-11T13:29:22;19.05;;;10.25;;
25057;SDS011;13057;50.978;11.034;2023-02-11T13:32:08;18.17;;;10.55;;
25057;SDS011;13057;50.978;11.034;2023-02-11T13:37:31;14.52;;;8.00;;
25057;SDS011;13057;50.978;11.034;2023-02-11T13:40:19;18.85;;;10.43;;
25057;SDS011;13057;50.978;11.034;2023-02-11T13:42:49;19.55;;;10.52;;
25057;SDS011;13057;50.978;11.034;2023-02-11T13:45:20;16.70;;;10.25;;
25057;SDS011;13057;50.978;11.034;2023-02-11T13:47:56;20.60;;;11.65;;
25057;SDS011;13057;50.978;11.034;2023-02-11T13:50:24;17.35;;;9.98;;
25057;SDS011;13057;50.978;11.034;2023-02-11T13:52:56;15.52;;;7.53;;
25057;SDS011;13057;50.978;11.034;2023-02-11T13:55:25;20.88;;;11.40;;
25057;SDS011;13057;50.978;11.034;2023-02-11T13:58:51;15.35;;;10.25;;
25057;SDS011;13057;50.978;11.034;2023-02-11T14:00:43;19.40;;;10.68;;
25057;SDS011;13057;50.978;11.034;2023-02-11T14:03:29;22.02;;;10.38;;
25057;SDS011;13057;50.978;11.034;2023-02-11T14:06:14;19.67;;;12.10;;
25057;SDS011;13057;50.978;11.034;2023-02-11T14:08:57;21.52;;;11.80;;
25057;SDS011;13057;50.978;11.034;2023-02-11T14:11:42;16.38;;;10.55;;
25057;SDS011;13057;50.978;11.034;2023-02-11T14:14:13;17.60;;;10.75;;
25057;SDS011;13057;50.978;11.034;2023-02-11T14:19:43;20.48;;;12.30;;
25057;SDS011;13057;50.978;11.034;2023-02-11T14:22:12;23.33;;;13.18;;
25057;SDS011;13057;50.978;11.034;2023-02-11T14:24:44;35.53;;;20.50;;
25057;SDS011;13057;50.978;11.034;2023-02-11T14:27:23;23.90;;;13.20;;
25057;SDS011;13057;50.978;11.034;2023-02-11T14:30:01;18.52;;;10.77;;
25057;SDS011;13057;50.978;11.034;2023-02-11T14:32:38;23.77;;;13.55;;
25057;SDS011;13057;50.978;11.034;2023-02-11T14:35:35;21.02;;;11.48;;
25057;SDS011;13057;50.978;11.034;2023-02-11T14:38:21;19.73;;;11.85;;
25057;SDS011;13057;50.978;11.034;2023-02-11T14:40:58;25.10;;;11.57;;
25057;SDS011;13057;50.978;11.034;2023-02-11T14:43:37;20.25;;;11.95;;
25057;SDS011;13057;50.978;11.034;2023-02-11T14:46:06;20.55;;;11.95;;
25057;SDS011;13057;50.978;11.034;2023-02-11T14:48:33;18.42;;;12.00;;
25057;SDS011;13057;50.978;11.034;2023-02-11T14:51:05;19.15;;;10.88;;
25057;SDS011;13057;50.978;11.034;2023-02-11T14:53:35;22.42;;;11.80;;
25057;SDS011;13057;50.978;11.034;2023-02-11T14:56:14;17.65;;;11.75;;
25057;SDS011;13057;50.978;11.034;2023-02-11T14:58:46;18.90;;;11.80;;
25057;SDS011;13057;50.978;11.034;2023-02-11T15:03:57;19.95;;;12.07;;
25057;SDS011;13057;50.978;11.034;2023-02-11T15:06:27;20.10;;;12.45;;
25057;SDS011;13057;50.978;11.034;2023-02-11T15:08:59;21.80;;;11.65;;
25057;SDS011;13057;50.978;11.034;2023-02-11T15:11:30;18.83;;;12.38;;
25057;SDS011;13057;50.978;11.034;2023-02-11T15:14:05;23.20;;;12.38;;
25057;SDS011;13057;50.978;11.034;2023-02-11T15:16:36;20.42;;;12.40;;
25057;SDS011;13057;50.978;11.034;2023-02-11T15:19:07;19.92;;;11.48;;
25057;SDS011;13057;50.978;11.034;2023-02-11T15:21:47;22.75;;;11.95;;